createdAt,value
2023-04-17T00:01:04.060Z,100.00
2023-04-17T00:06:10.004Z,100.00
2023-04-17T00:11:18.000Z,100.00
2023-04-17T00:16:24.319Z,100.00
2023-04-17T00:21:30.037Z,100.00
2023-04-17T00:26:35.673Z,100.00
2023-04-17T00:31:41.615Z,100.00
2023-04-17T00:36:47.042Z,100.00
2023-04-17T00:41:52.543Z,100.00
2023-04-17T00:46:57.951Z,100.00
2023-04-17T00:52:03.986Z,100.00
2023-04-17T00:57:09.909Z,100.00
2023-04-17T01:02:16.744Z,100.00
2023-04-17T01:07:22.568Z,100.00
2023-04-17T01:12:28.012Z,100.00
2023-04-17T01:17:33.594Z,100.00
2023-04-17T01:22:39.524Z,100.00
2023-04-17T01:27:44.935Z,100.00
2023-04-17T01:32:50.848Z,100.00
2023-04-17T01:37:56.891Z,100.00
2023-04-17T01:43:02.355Z,100.00
2023-04-17T01:48:08.710Z,100.00
2023-04-17T01:53:14.126Z,100.00
2023-04-17T01:58:19.987Z,100.00
2023-04-17T02:03:25.993Z,100.00
2023-04-17T02:08:31.550Z,100.00
2023-04-17T02:13:38.254Z,100.00
2023-04-17T02:18:43.770Z,100.00
2023-04-17T02:23:49.261Z,100.00
2023-04-17T02:28:54.949Z,100.00
2023-04-17T02:34:00.872Z,100.00
2023-04-17T02:39:07.438Z,100.00
2023-04-17T02:44:12.943Z,100.00
2023-04-17T02:49:18.548Z,100.00
2023-04-17T02:54:24.174Z,100.00
2023-04-17T02:59:30.314Z,100.00
2023-04-17T03:04:38.804Z,100.00
2023-04-17T03:09:45.787Z,100.00
2023-04-17T03:14:52.466Z,100.00
2023-04-17T03:19:57.911Z,100.00
2023-04-17T03:25:03.393Z,100.00
2023-04-17T03:30:15.816Z,100.00
2023-04-17T03:35:25.200Z,100.00
2023-04-17T03:40:33.209Z,100.00
2023-04-17T03:45:39.726Z,100.00
2023-04-17T03:50:45.387Z,100.00
2023-04-17T03:55:51.216Z,100.00
2023-04-17T04:01:04.123Z,100.00
2023-04-17T04:06:13.235Z,100.00
2023-04-17T04:11:18.855Z,100.00
2023-04-17T04:16:24.461Z,100.00
2023-04-17T04:21:31.820Z,100.00
2023-04-17T04:26:41.001Z,100.00
2023-04-17T04:31:46.920Z,100.00
2023-04-17T04:36:52.828Z,100.00
2023-04-17T04:42:29.431Z,100.00
2023-04-17T04:47:44.547Z,100.00
2023-04-17T04:52:50.864Z,100.00
2023-04-17T04:58:11.108Z,100.00
2023-04-17T05:03:17.588Z,100.00
2023-04-17T05:08:24.671Z,100.00
2023-04-17T05:13:39.272Z,100.00
2023-04-17T05:18:48.369Z,100.00
2023-04-17T05:23:56.929Z,100.00
2023-04-17T05:29:02.350Z,100.00
2023-04-17T05:34:10.344Z,100.00
2023-04-17T05:39:16.775Z,100.00
2023-04-17T05:44:22.578Z,100.00
2023-04-17T05:49:28.528Z,100.00
2023-04-17T05:54:34.145Z,100.00
2023-04-17T05:59:40.365Z,100.00
2023-04-17T06:04:48.056Z,100.00
2023-04-17T06:09:53.581Z,100.00
2023-04-17T06:14:59.627Z,100.00
2023-04-17T06:20:11.765Z,100.00
2023-04-17T06:25:18.131Z,100.00
2023-04-17T06:30:24.012Z,99.58
2023-04-17T06:35:31.843Z,98.09
2023-04-17T06:40:43.505Z,97.25
2023-04-17T06:45:49.918Z,95.08
2023-04-17T06:50:55.360Z,91.74
2023-04-17T06:56:00.846Z,91.70
2023-04-17T07:01:06.640Z,90.39
2023-04-17T07:06:12.391Z,87.48
2023-04-17T07:11:17.957Z,87.85
2023-04-17T07:16:23.619Z,85.77
2023-04-17T07:21:29.272Z,83.43
2023-04-17T07:26:37.532Z,81.66
2023-04-17T07:31:43.032Z,80.32
2023-04-17T07:36:50.287Z,80.27
2023-04-17T07:41:56.851Z,81.26
2023-04-17T07:47:02.477Z,81.72
2023-04-17T07:52:08.824Z,80.84
2023-04-17T07:57:15.554Z,80.97
2023-04-17T08:02:22.753Z,82.48
2023-04-17T08:07:28.770Z,81.53
2023-04-17T08:12:34.288Z,81.56
2023-04-17T08:17:41.440Z,80.31
2023-04-17T08:22:47.660Z,80.07
2023-04-17T08:27:53.230Z,79.45
2023-04-17T08:32:58.877Z,79.71
2023-04-17T08:38:04.400Z,80.07
2023-04-17T08:43:16.447Z,79.19
2023-04-17T08:48:22.950Z,80.23
2023-04-17T08:53:28.582Z,79.12
2023-04-17T08:58:35.800Z,76.13
2023-04-17T09:03:43.521Z,72.70
2023-04-17T09:09:00.714Z,68.05
2023-04-17T09:14:06.358Z,66.52
2023-04-17T09:19:12.106Z,69.19
2023-04-17T09:24:32.099Z,67.01
2023-04-17T09:29:58.060Z,67.29
2023-04-17T09:35:06.153Z,66.30
2023-04-17T09:40:12.776Z,66.34
2023-04-17T09:45:24.464Z,65.89
2023-04-17T09:50:32.428Z,64.27
2023-04-17T09:55:41.696Z,62.86
2023-04-17T10:00:48.250Z,60.82
2023-04-17T10:05:54.271Z,61.04
2023-04-17T10:11:07.274Z,63.67
2023-04-17T10:16:13.111Z,62.57
2023-04-17T10:21:24.265Z,61.54
2023-04-17T10:26:37.975Z,62.70
2023-04-17T10:32:26.562Z,62.32
2023-04-17T10:37:59.423Z,62.42
2023-04-17T10:43:07.530Z,61.60
2023-04-17T10:48:26.521Z,57.04
2023-04-17T10:53:42.798Z,55.76
2023-04-17T10:58:59.721Z,53.37
2023-04-17T11:04:06.287Z,52.37
2023-04-17T11:09:12.268Z,52.79
2023-04-17T11:14:19.999Z,51.87
2023-04-17T11:19:26.616Z,51.35
2023-04-17T11:24:32.801Z,52.88
2023-04-17T11:29:38.210Z,54.33
2023-04-17T11:34:44.056Z,54.50
2023-04-17T11:39:49.480Z,55.88
2023-04-17T11:45:07.719Z,57.30
2023-04-17T11:50:16.750Z,59.35
2023-04-17T11:55:22.845Z,60.62
2023-04-17T12:00:30.162Z,60.73
2023-04-17T12:05:36.409Z,61.48
2023-04-17T12:10:45.559Z,61.40
2023-04-17T12:15:51.067Z,61.39
2023-04-17T12:20:56.701Z,62.01
2023-04-17T12:26:02.085Z,62.50
2023-04-17T12:31:07.915Z,62.86
2023-04-17T12:36:13.543Z,62.79
2023-04-17T12:41:20.091Z,63.15
2023-04-17T12:46:26.090Z,62.80
2023-04-17T12:51:37.476Z,62.34
2023-04-17T12:56:42.976Z,62.29
2023-04-17T13:01:48.695Z,61.26
2023-04-17T13:06:54.056Z,61.01
2023-04-17T13:11:59.530Z,58.34
2023-04-17T13:17:06.359Z,56.94
2023-04-17T13:22:12.297Z,57.08
2023-04-17T13:27:17.654Z,57.14
2023-04-17T13:32:23.398Z,56.86
2023-04-17T13:37:28.919Z,57.81
2023-04-17T13:42:34.381Z,58.93
2023-04-17T13:47:40.454Z,58.67
2023-04-17T13:52:46.008Z,58.26
2023-04-17T13:57:51.722Z,58.43
2023-04-17T14:02:57.536Z,57.86
2023-04-17T14:08:03.182Z,58.09
2023-04-17T14:13:09.651Z,57.32
2023-04-17T14:18:15.700Z,56.81
2023-04-17T14:23:21.155Z,55.86
2023-04-17T14:28:26.963Z,55.76
2023-04-17T14:33:32.723Z,56.24
2023-04-17T14:38:38.479Z,56.56
2023-04-17T14:43:44.681Z,55.89
2023-04-17T14:48:55.284Z,56.16
2023-04-17T14:54:01.525Z,56.66
2023-04-17T14:59:07.093Z,57.23
2023-04-17T15:04:12.635Z,57.66
2023-04-17T15:09:18.398Z,58.06
2023-04-17T15:14:23.980Z,59.44
2023-04-17T15:19:29.535Z,59.76
2023-04-17T15:24:36.004Z,58.51
2023-04-17T15:29:41.346Z,58.57
2023-04-17T15:34:47.420Z,58.95
2023-04-17T15:39:52.864Z,59.54
2023-04-17T15:44:58.529Z,60.13
2023-04-17T15:50:06.524Z,59.45
2023-04-17T15:55:12.512Z,59.41
2023-04-17T16:00:19.460Z,59.99
2023-04-17T16:05:24.960Z,59.85
2023-04-17T16:10:30.944Z,60.36
2023-04-17T16:15:36.593Z,60.98
2023-04-17T16:20:42.284Z,61.84
2023-04-17T16:25:50.264Z,62.19
2023-04-17T16:30:56.393Z,63.03
2023-04-17T16:36:02.300Z,63.44
2023-04-17T16:41:08.197Z,62.96
2023-04-17T16:46:23.853Z,63.44
2023-04-17T16:51:34.235Z,64.18
2023-04-17T16:56:40.413Z,64.87
2023-04-17T17:01:47.285Z,65.31
2023-04-17T17:06:52.829Z,65.59
2023-04-17T17:11:58.323Z,65.67
2023-04-17T17:17:03.764Z,66.16
2023-04-17T17:22:09.914Z,66.54
2023-04-17T17:27:15.627Z,67.06
2023-04-17T17:32:21.481Z,67.56
2023-04-17T17:37:27.687Z,68.17
2023-04-17T17:42:33.596Z,68.62
2023-04-17T17:47:40.624Z,69.24
2023-04-17T17:52:46.826Z,69.69
2023-04-17T17:57:52.242Z,70.21
2023-04-17T18:02:57.927Z,70.55
2023-04-17T18:08:03.796Z,70.98
2023-04-17T18:13:09.550Z,71.54
2023-04-17T18:18:15.341Z,71.91
2023-04-17T18:23:21.370Z,72.21
2023-04-17T18:28:27.497Z,72.66
2023-04-17T18:33:33.709Z,73.00
2023-04-17T18:38:39.522Z,73.35
2023-04-17T18:43:44.939Z,73.51
2023-04-17T18:48:50.725Z,73.87
2023-04-17T18:53:56.482Z,74.15
2023-04-17T18:59:02.516Z,74.43
2023-04-17T19:04:08.303Z,74.66
2023-04-17T19:09:14.100Z,75.06
2023-04-17T19:14:19.770Z,75.43
2023-04-17T19:19:25.644Z,75.80
2023-04-17T19:24:32.296Z,76.23
2023-04-17T19:29:38.341Z,76.63
2023-04-17T19:34:44.432Z,76.94
2023-04-17T19:39:51.592Z,77.51
2023-04-17T19:45:00.129Z,77.86
2023-04-17T19:50:06.700Z,78.38
2023-04-17T19:55:12.955Z,78.41
2023-04-17T20:00:19.398Z,78.76
2023-04-17T20:05:25.353Z,79.02
2023-04-17T20:10:30.970Z,79.26
2023-04-17T20:15:36.335Z,79.76
2023-04-17T20:20:41.787Z,80.53
2023-04-17T20:25:47.312Z,81.20
2023-04-17T20:30:52.871Z,81.70
2023-04-17T20:35:58.930Z,82.15
2023-04-17T20:41:04.608Z,82.37
2023-04-17T20:46:10.360Z,82.34
2023-04-17T20:51:18.273Z,82.48
2023-04-17T20:56:24.280Z,82.70
2023-04-17T21:01:29.834Z,83.08
2023-04-17T21:06:35.619Z,83.36
2023-04-17T21:11:41.670Z,83.57
2023-04-17T21:16:47.113Z,83.85
2023-04-17T21:21:53.425Z,84.31
2023-04-17T21:27:01.013Z,84.15
2023-04-17T21:32:07.297Z,84.34
2023-04-17T21:37:12.647Z,84.67
2023-04-17T21:42:18.103Z,84.88
2023-04-17T21:47:23.537Z,84.89
2023-04-17T21:52:29.290Z,85.10
2023-04-17T21:57:35.850Z,85.20
2023-04-17T22:02:41.506Z,85.74
2023-04-17T22:07:54.352Z,87.68
2023-04-17T22:13:01.204Z,89.45
2023-04-17T22:18:07.414Z,90.52
2023-04-17T22:23:12.992Z,91.49
2023-04-17T22:28:18.774Z,92.79
2023-04-17T22:33:24.317Z,93.90
2023-04-17T22:38:29.718Z,94.59
2023-04-17T22:43:36.380Z,95.66
2023-04-17T22:48:45.201Z,96.90
2023-04-17T22:53:50.957Z,98.18
2023-04-17T22:58:56.518Z,99.08
2023-04-17T23:04:01.921Z,99.84
2023-04-17T23:09:07.607Z,100.00
2023-04-17T23:14:13.410Z,100.00
2023-04-17T23:19:21.198Z,100.00
2023-04-17T23:24:26.668Z,100.00
2023-04-17T23:29:32.070Z,100.00
2023-04-17T23:34:37.907Z,100.00
2023-04-17T23:39:43.712Z,100.00
2023-04-17T23:44:49.337Z,100.00
2023-04-17T23:49:54.715Z,100.00
2023-04-17T23:55:00.099Z,100.00
